Swanlake, Idaho
Current Conditions -  °F | °C
As of 4:51 PM on Saturday 25 Oct 2014 (Local Time) from KLGU Reporting Station
Clear Clear  
Wind Chill: 74°   Ceiling: Unl
Heat Index: 74°   Visibility: 10mi
Dew Point: 33°   Wind: 18mph
Humidity: 22%   Direction: 210°SSW
Pressure: 29.92"   Gusts: 28mph
Location:  42.31°N, 112.01°W
Report Text: KLGU 252251Z AUTO 21016G24KT 10SM CLR 23/01 A2992 RMK AO2 PK WND 22027/2156 SLP103 T02330006 TSNO
Loading
Personal Weather Stations






























Interactive Weather Map
Tropical Storm Tracking
New forecast layout! Learn more

10-Day Weather Forecast

Advertisements
Track Severe Weather on mobile